Time;durP1;ratioP1;P1;durP2;ratioP2;P2;SDS_P1;SDS_P2;PMS_P1;PMS_P2;Temp;Humidity;BMP_temperature;BMP_pressure;BME280_temperature;BME280_humidity;BME280_pressure;Samples;Min_cycle;Max_cycle;Signal;HPM_P1;HPM_P2
2021/01/29 00:02:00;;;;;;;2.33;1.30;;;;;;;-144.78;100.00;59851.00;5024944;28;20297;-72
2021/01/29 00:04:26;;;;;;;2.58;1.10;;;;;;;-144.78;100.00;59851.00;5034322;28;20703;-72
2021/01/29 00:06:52;;;;;;;3.85;1.42;;;;;;;-144.78;100.00;59851.00;5034550;28;20268;-72
2021/01/29 00:09:19;;;;;;;2.45;0.95;;;;;;;-144.78;100.00;59851.00;5034530;28;20558;-71
2021/01/29 00:11:46;;;;;;;1.30;1.02;;;;;;;-144.78;100.00;59851.00;5034022;28;20198;-71
2021/01/29 00:14:12;;;;;;;1.17;0.95;;;;;;;-144.78;100.00;59851.00;5033540;28;20576;-71
2021/01/29 00:16:39;;;;;;;3.25;1.15;;;;;;;-144.78;100.00;59851.00;5033729;28;20348;-71
2021/01/29 00:19:05;;;;;;;2.03;1.25;;;;;;;-144.78;100.00;59851.00;5034307;28;20210;-71
2021/01/29 00:21:32;;;;;;;2.10;1.33;;;;;;;-144.78;100.00;59851.00;5033996;28;20326;-71
2021/01/29 00:23:58;;;;;;;2.20;2.00;;;;;;;-144.78;100.00;59851.00;5034038;28;20406;-71
2021/01/29 00:26:25;;;;;;;1.08;0.90;;;;;;;-144.78;100.00;59851.00;5034053;28;20557;-72
2021/01/29 00:28:52;;;;;;;1.50;1.40;;;;;;;-144.78;100.00;59851.00;5033236;28;20225;-71
2021/01/29 00:31:18;;;;;;;1.40;1.30;;;;;;;-144.78;100.00;59851.00;5033985;28;20198;-72
2021/01/29 00:33:45;;;;;;;1.55;1.00;;;;;;;-144.78;100.00;59851.00;5033598;28;20210;-71
2021/01/29 00:36:11;;;;;;;1.55;1.00;;;;;;;-144.78;100.00;59851.00;5033856;28;20576;-72
2021/01/29 00:38:38;;;;;;;1.10;0.85;;;;;;;-144.78;100.00;59851.00;5033740;28;20225;-72
2021/01/29 00:41:04;;;;;;;1.30;1.20;;;;;;;-144.78;100.00;59851.00;5033929;28;20293;-72
2021/01/29 00:43:32;;;;;;;1.50;1.00;;;;;;;-144.78;100.00;59851.00;5033301;28;20202;-70
2021/01/29 00:45:58;;;;;;;1.08;0.80;;;;;;;-144.78;100.00;59851.00;5033669;28;20581;-71
2021/01/29 00:48:24;;;;;;;1.10;0.82;;;;;;;-144.78;100.00;59851.00;5033490;28;20264;-72
2021/01/29 00:50:51;;;;;;;1.35;0.85;;;;;;;-144.78;100.00;59851.00;5034113;28;20209;-71
2021/01/29 00:53:17;;;;;;;0.90;0.70;;;;;;;-144.78;100.00;59851.00;5033529;28;20206;-72
2021/01/29 00:55:43;;;;;;;1.00;0.70;;;;;;;-144.78;100.00;59851.00;5033128;28;20212;-71
2021/01/29 00:58:09;;;;;;;1.08;0.80;;;;;;;-144.78;100.00;59851.00;5033822;28;20237;-72
2021/01/29 01:00:37;;;;;;;1.60;1.15;;;;;;;-144.78;100.00;59851.00;5033457;28;20225;-71
2021/01/29 01:03:03;;;;;;;0.90;0.70;;;;;;;-144.78;100.00;59851.00;5033077;28;20230;-71
2021/01/29 01:05:29;;;;;;;1.35;0.80;;;;;;;-144.78;100.00;59851.00;5033175;28;20288;-71
2021/01/29 01:07:56;;;;;;;1.00;0.80;;;;;;;-144.78;100.00;59851.00;5033598;28;20680;-72
2021/01/29 01:10:23;;;;;;;1.00;0.90;;;;;;;-144.78;100.00;59851.00;5033493;28;20277;-71
2021/01/29 01:12:49;;;;;;;1.02;0.68;;;;;;;-144.78;100.00;59851.00;5033495;28;20688;-72
2021/01/29 01:15:19;;;;;;;0.90;0.80;;;;;;;-144.78;100.00;59851.00;5033349;28;20656;-71
2021/01/29 01:17:47;;;;;;;0.90;0.65;;;;;;;-144.78;100.00;59851.00;5033177;28;20252;-71
2021/01/29 01:20:16;;;;;;;0.80;0.68;;;;;;;-144.78;100.00;59851.00;5033195;28;20190;-72
2021/01/29 01:22:42;;;;;;;1.15;0.80;;;;;;;-144.78;100.00;59851.00;5033359;28;20750;-72
2021/01/29 01:25:10;;;;;;;1.65;0.77;;;;;;;-144.78;100.00;59851.00;5032265;28;20196;-72
2021/01/29 01:27:36;;;;;;;1.08;0.90;;;;;;;-144.78;100.00;59851.00;5028166;28;20194;-71
2021/01/29 01:30:04;;;;;;;0.90;0.80;;;;;;;-144.78;100.00;59851.00;5031672;28;20536;-71
2021/01/29 01:32:30;;;;;;;1.10;0.80;;;;;;;-144.78;100.00;59851.00;5033251;28;20672;-71
2021/01/29 01:34:57;;;;;;;1.10;1.00;;;;;;;-144.78;100.00;59851.00;5032803;28;20201;-71
2021/01/29 01:37:23;;;;;;;0.93;0.73;;;;;;;-144.78;100.00;59851.00;5033308;28;20190;-71
2021/01/29 01:39:49;;;;;;;0.80;0.80;;;;;;;-144.78;100.00;59851.00;5032530;28;20299;-70
2021/01/29 01:42:15;;;;;;;1.00;0.80;;;;;;;-144.78;100.00;59851.00;5032606;28;20222;-71
2021/01/29 01:44:42;;;;;;;0.90;0.80;;;;;;;-144.78;100.00;59851.00;5032245;28;20216;-70
2021/01/29 01:47:21;;;;;;;1.10;1.00;;;;;;;-144.78;100.00;59851.00;5032753;28;20188;-71
2021/01/29 01:49:48;;;;;;;1.70;0.98;;;;;;;-144.78;100.00;59851.00;5032669;28;20205;-71
2021/01/29 01:52:23;;;;;;;1.00;0.80;;;;;;;-144.78;100.00;59851.00;5032801;28;20213;-71
2021/01/29 01:54:54;;;;;;;0.95;0.80;;;;;;;-144.78;100.00;59851.00;5032206;28;20395;-71
2021/01/29 01:57:23;;;;;;;0.90;0.70;;;;;;;-144.78;100.00;59851.00;5014691;28;20668;-70
2021/01/29 01:59:54;;;;;;;0.88;0.73;;;;;;;-144.78;100.00;59851.00;5022585;28;20652;-71
2021/01/29 02:02:25;;;;;;;1.55;1.00;;;;;;;-144.78;100.00;59851.00;5026940;28;20308;-71
2021/01/29 02:04:52;;;;;;;1.27;0.85;;;;;;;-144.78;100.00;59851.00;5032592;28;20879;-71
2021/01/29 02:07:35;;;;;;;0.90;0.75;;;;;;;-144.78;100.00;59851.00;5032641;28;20539;-71
2021/01/29 02:10:04;;;;;;;2.40;0.90;;;;;;;-144.78;100.00;59851.00;5032758;28;20609;-71
2021/01/29 02:12:30;;;;;;;2.95;1.02;;;;;;;-144.78;100.00;59851.00;5032539;28;20696;-71
2021/01/29 02:14:56;;;;;;;2.95;1.00;;;;;;;-144.78;100.00;59851.00;5024963;28;20661;-71
2021/01/29 02:17:36;;;;;;;1.67;1.13;;;;;;;-144.78;100.00;59851.00;5021312;28;20194;-72
2021/01/29 02:20:42;;;;;;;2.50;0.90;;;;;;;-144.78;100.00;59851.00;5032363;28;20222;-71
2021/01/29 02:23:47;;;;;;;1.20;0.73;;;;;;;-144.78;100.00;59851.00;5016874;28;20237;-72
2021/01/29 02:26:56;;;;;;;1.30;0.70;;;;;;;-144.78;100.00;59851.00;5021677;28;20284;-72
2021/01/29 02:30:09;;;;;;;1.45;0.98;;;;;;;-144.78;100.00;59851.00;5027186;28;20313;-71
2021/01/29 02:33:16;;;;;;;0.90;0.70;;;;;;;-144.78;100.00;59851.00;5013514;28;20267;-73
2021/01/29 02:36:24;;;;;;;1.92;0.70;;;;;;;-144.78;100.00;59851.00;5032323;28;20257;-72
2021/01/29 02:39:05;;;;;;;1.15;1.05;;;;;;;-144.78;100.00;59851.00;5034582;28;20202;-71
2021/01/29 02:41:49;;;;;;;1.23;0.77;;;;;;;-144.78;100.00;59851.00;5036009;28;20237;-71
2021/01/29 02:44:29;;;;;;;1.00;0.90;;;;;;;-144.78;100.00;59851.00;5036304;28;20280;-71
2021/01/29 02:46:57;;;;;;;1.23;0.90;;;;;;;-144.78;100.00;59851.00;5035475;28;20284;-73
2021/01/29 02:49:36;;;;;;;2.10;1.00;;;;;;;-144.78;100.00;59851.00;5036042;28;20660;-71
2021/01/29 02:52:12;;;;;;;3.10;1.20;;;;;;;-144.78;100.00;59851.00;5036235;28;20194;-72
2021/01/29 02:54:45;;;;;;;1.98;1.08;;;;;;;-144.78;100.00;59851.00;5035490;28;20186;-72
2021/01/29 02:57:21;;;;;;;7.43;1.13;;;;;;;-144.78;100.00;59851.00;5036242;28;20237;-71
2021/01/29 02:59:56;;;;;;;1.10;0.80;;;;;;;-144.78;100.00;59851.00;5035168;28;20292;-72
2021/01/29 03:02:27;;;;;;;1.40;1.10;;;;;;;-144.78;100.00;59851.00;5035169;28;20238;-71
2021/01/29 03:04:58;;;;;;;4.72;1.27;;;;;;;-144.78;100.00;59851.00;5035146;28;20237;-72
2021/01/29 03:07:30;;;;;;;1.40;1.05;;;;;;;-144.78;100.00;59851.00;5035490;28;20236;-70
2021/01/29 03:10:01;;;;;;;1.08;0.98;;;;;;;-144.78;100.00;59851.00;5035741;28;20218;-71
2021/01/29 03:12:34;;;;;;;0.80;0.70;;;;;;;-144.78;100.00;59851.00;5035598;28;20186;-72
2021/01/29 03:15:09;;;;;;;0.90;0.77;;;;;;;-144.78;100.00;59851.00;5035214;28;20245;-72
2021/01/29 03:17:39;;;;;;;1.65;0.90;;;;;;;-144.78;100.00;59851.00;5035795;28;20189;-71
2021/01/29 03:20:09;;;;;;;2.42;0.80;;;;;;;-144.78;100.00;59851.00;5035485;28;20652;-71
2021/01/29 03:22:39;;;;;;;1.90;1.02;;;;;;;-144.78;100.00;59851.00;5035645;28;20220;-71
2021/01/29 03:25:11;;;;;;;1.25;0.90;;;;;;;-144.78;100.00;59851.00;5034758;28;20624;-71
2021/01/29 03:27:41;;;;;;;1.75;0.95;;;;;;;-144.78;100.00;59851.00;5034775;28;20202;-71
2021/01/29 03:30:11;;;;;;;1.45;1.00;;;;;;;-144.78;100.00;59851.00;5034460;28;20313;-71
2021/01/29 03:32:39;;;;;;;2.30;1.30;;;;;;;-144.78;100.00;59851.00;5035007;28;20904;-72
2021/01/29 03:35:12;;;;;;;1.50;1.20;;;;;;;-144.78;100.00;59851.00;5035622;28;20224;-71
2021/01/29 03:37:43;;;;;;;1.38;1.20;;;;;;;-144.78;100.00;59851.00;5035143;28;20190;-71
2021/01/29 03:40:11;;;;;;;1.75;1.58;;;;;;;-144.78;100.00;59851.00;5035363;28;20612;-70
2021/01/29 03:42:47;;;;;;;2.47;1.58;;;;;;;-144.78;100.00;59851.00;5034439;28;20225;-71
2021/01/29 03:45:18;;;;;;;1.50;1.30;;;;;;;-144.78;100.00;59851.00;5035327;28;20652;-70
2021/01/29 03:47:57;;;;;;;3.13;1.35;;;;;;;-144.78;100.00;59851.00;5034900;28;20233;-72
2021/01/29 03:50:34;;;;;;;1.73;1.38;;;;;;;-144.78;100.00;59851.00;5033365;28;20197;-72
2021/01/29 03:53:13;;;;;;;1.30;1.17;;;;;;;-144.78;100.00;59851.00;5034495;28;20291;-71
2021/01/29 03:55:45;;;;;;;1.50;1.00;;;;;;;-144.78;100.00;59851.00;5035064;28;20285;-72
2021/01/29 03:58:17;;;;;;;1.45;1.10;;;;;;;-144.78;100.00;59851.00;5032853;28;20948;-70
2021/01/29 04:00:55;;;;;;;2.85;1.10;;;;;;;-144.78;100.00;59851.00;5035053;28;20190;-71
2021/01/29 04:03:32;;;;;;;1.60;1.25;;;;;;;-144.78;100.00;59851.00;5034731;28;20273;-74
2021/01/29 04:06:08;;;;;;;1.73;1.30;;;;;;;-144.78;100.00;59851.00;5034483;28;20201;-71
2021/01/29 04:08:41;;;;;;;1.73;1.05;;;;;;;-144.78;100.00;59851.00;5034663;28;20249;-72
2021/01/29 04:11:13;;;;;;;1.73;1.20;;;;;;;-144.78;100.00;59851.00;5034289;28;20190;-71
2021/01/29 04:13:44;;;;;;;2.30;1.30;;;;;;;-144.78;100.00;59851.00;5034793;28;20206;-72
2021/01/29 04:16:15;;;;;;;2.15;1.65;;;;;;;-144.78;100.00;59851.00;5034244;28;20186;-71
2021/01/29 04:18:45;;;;;;;2.60;1.40;;;;;;;-144.78;100.00;59851.00;5029648;28;20205;-71
2021/01/29 04:21:17;;;;;;;2.33;1.30;;;;;;;-144.78;100.00;59851.00;5034286;28;20305;-71
2021/01/29 04:23:47;;;;;;;2.00;1.25;;;;;;;-144.78;100.00;59851.00;5034149;28;20222;-71
2021/01/29 04:26:18;;;;;;;1.65;1.38;;;;;;;-144.78;100.00;59851.00;5033698;28;20190;-71
2021/01/29 04:28:48;;;;;;;1.42;1.20;;;;;;;-144.78;100.00;59851.00;5034023;28;20272;-70
2021/01/29 04:31:18;;;;;;;2.65;1.58;;;;;;;-144.78;100.00;59851.00;5033849;28;20193;-73
2021/01/29 04:33:47;;;;;;;1.10;0.93;;;;;;;-144.78;100.00;59851.00;5034132;28;20273;-72
2021/01/29 04:36:17;;;;;;;1.17;1.08;;;;;;;-144.78;100.00;59851.00;5034285;28;20230;-71
2021/01/29 04:38:46;;;;;;;0.93;0.85;;;;;;;-144.78;100.00;59851.00;5034343;28;20236;-71
2021/01/29 04:41:27;;;;;;;0.70;0.60;;;;;;;-144.78;100.00;59851.00;5033985;28;20316;-71
2021/01/29 04:44:22;;;;;;;0.80;0.70;;;;;;;-144.78;100.00;59851.00;5033547;28;20213;-71
2021/01/29 04:47:08;;;;;;;1.08;0.70;;;;;;;-144.78;100.00;59851.00;5032723;28;20239;-71
2021/01/29 04:49:48;;;;;;;0.80;0.60;;;;;;;-144.78;100.00;59851.00;5033169;28;20256;-71
2021/01/29 04:52:32;;;;;;;1.75;0.70;;;;;;;-144.78;100.00;59851.00;5033395;28;20200;-71
2021/01/29 04:55:27;;;;;;;0.70;0.50;;;;;;;-144.78;100.00;59851.00;5032796;28;20259;-72
2021/01/29 04:58:00;;;;;;;0.73;0.63;;;;;;;-144.78;100.00;59851.00;5032964;28;20192;-71
2021/01/29 05:01:09;;;;;;;0.70;0.50;;;;;;;-144.78;100.00;59851.00;5032773;28;20200;-71
2021/01/29 05:04:00;;;;;;;0.70;0.50;;;;;;;-144.78;100.00;59851.00;5030238;28;20206;-71
2021/01/29 05:06:39;;;;;;;0.82;0.82;;;;;;;-144.78;100.00;59851.00;5032535;28;20693;-71
2021/01/29 05:09:29;;;;;;;0.70;0.50;;;;;;;-144.78;100.00;59851.00;5033015;28;20195;-72
2021/01/29 05:12:26;;;;;;;0.70;0.55;;;;;;;-144.78;100.00;59851.00;5032773;28;20191;-71
2021/01/29 05:15:25;;;;;;;1.05;0.95;;;;;;;-144.78;100.00;59851.00;5013363;28;20651;-70
2021/01/29 05:18:30;;;;;;;0.80;0.60;;;;;;;-144.78;100.00;59851.00;5025545;28;20235;-71
2021/01/29 05:21:20;;;;;;;0.80;0.60;;;;;;;-144.78;100.00;59851.00;5032607;28;20288;-71
2021/01/29 05:24:19;;;;;;;2.13;0.60;;;;;;;-144.78;100.00;59851.00;5032409;28;20269;-71
2021/01/29 05:27:07;;;;;;;0.85;0.50;;;;;;;-144.78;100.00;59851.00;5033172;28;20635;-71
2021/01/29 05:29:47;;;;;;;1.08;0.60;;;;;;;-144.78;100.00;59851.00;5032650;28;20239;-71
2021/01/29 05:32:30;;;;;;;0.70;0.60;;;;;;;-144.78;100.00;59851.00;5013536;28;20276;-71
2021/01/29 05:35:23;;;;;;;0.77;0.57;;;;;;;-144.78;100.00;59851.00;5013196;28;20187;-72
2021/01/29 05:38:06;;;;;;;1.20;0.70;;;;;;;-144.78;100.00;59851.00;5022550;28;20298;-70
2021/01/29 05:41:01;;;;;;;0.70;0.50;;;;;;;-144.78;100.00;59851.00;5032894;28;20274;-71
2021/01/29 05:43:40;;;;;;;0.80;0.73;;;;;;;-144.78;100.00;59851.00;5018722;28;20266;-71
2021/01/29 05:46:15;;;;;;;5.45;0.93;;;;;;;-144.78;100.00;59851.00;5032928;28;20275;-70
2021/01/29 05:49:06;;;;;;;1.25;0.80;;;;;;;-144.78;100.00;59851.00;5032244;28;20212;-70
2021/01/29 05:51:50;;;;;;;0.70;0.50;;;;;;;-144.78;100.00;59851.00;5032100;28;20274;-70
2021/01/29 05:54:48;;;;;;;0.70;0.50;;;;;;;-144.78;100.00;59851.00;5029198;28;20202;-71
2021/01/29 05:57:55;;;;;;;0.70;0.50;;;;;;;-144.78;100.00;59851.00;5032434;28;20211;-70
2021/01/29 06:00:37;;;;;;;0.70;0.50;;;;;;;-144.78;100.00;59851.00;5032775;28;20363;-72
2021/01/29 06:03:24;;;;;;;0.70;0.50;;;;;;;-144.78;100.00;59851.00;5032746;28;20600;-71
2021/01/29 06:06:14;;;;;;;0.90;0.60;;;;;;;-144.78;100.00;59851.00;5032595;28;20322;-71
2021/01/29 06:08:52;;;;;;;0.70;0.50;;;;;;;-144.78;100.00;59851.00;5012824;28;20254;-70
2021/01/29 06:11:36;;;;;;;0.70;0.60;;;;;;;-144.78;100.00;59851.00;5029883;28;20282;-71
2021/01/29 06:14:38;;;;;;;0.70;0.60;;;;;;;-144.78;100.00;59851.00;5034947;28;20196;-72
2021/01/29 06:17:58;;;;;;;1.20;0.70;;;;;;;-144.78;100.00;59851.00;5034989;28;20195;-71
2021/01/29 06:20:54;;;;;;;0.70;0.50;;;;;;;-144.78;100.00;59851.00;5036432;28;20199;-72
2021/01/29 06:23:41;;;;;;;0.70;0.60;;;;;;;-144.78;100.00;59851.00;5036791;28;20213;-74
2021/01/29 06:26:23;;;;;;;1.38;0.70;;;;;;;-144.78;100.00;59851.00;5036319;28;20754;-75
2021/01/29 06:29:20;;;;;;;0.70;0.60;;;;;;;-144.78;100.00;59851.00;5035458;28;20235;-74
2021/01/29 06:32:21;;;;;;;1.00;0.70;;;;;;;-144.78;100.00;59851.00;5034797;28;20535;-75
2021/01/29 06:35:03;;;;;;;0.77;0.63;;;;;;;-144.78;100.00;59851.00;5035596;28;20199;-74
2021/01/29 06:37:41;;;;;;;0.70;0.60;;;;;;;-144.78;100.00;59851.00;5035652;28;20219;-75
2021/01/29 06:40:16;;;;;;;0.70;0.60;;;;;;;-144.78;100.00;59851.00;5035151;28;20277;-75
2021/01/29 06:43:23;;;;;;;0.73;0.70;;;;;;;-144.78;100.00;59851.00;5034870;28;20210;-74
2021/01/29 06:46:07;;;;;;;0.90;0.60;;;;;;;-144.78;100.00;59851.00;5035044;28;20342;-72
2021/01/29 06:48:59;;;;;;;0.70;0.60;;;;;;;-144.78;100.00;59851.00;5026598;28;20206;-75
2021/01/29 06:51:51;;;;;;;0.70;0.50;;;;;;;-144.78;100.00;59851.00;5019178;28;20190;-75
2021/01/29 06:54:50;;;;;;;0.70;0.50;;;;;;;-144.78;100.00;59851.00;5015407;28;20196;-75
2021/01/29 06:57:29;;;;;;;0.70;0.50;;;;;;;-144.78;100.00;59851.00;4998623;28;20212;-75
2021/01/29 07:00:18;;;;;;;1.00;0.90;;;;;;;-144.78;100.00;59851.00;5015302;28;20282;-73
2021/01/29 07:03:19;;;;;;;0.70;0.50;;;;;;;-144.78;100.00;59851.00;5015961;28;20228;-75
2021/01/29 07:05:56;;;;;;;0.80;0.60;;;;;;;-144.78;100.00;59851.00;5015318;28;20248;-73
2021/01/29 07:08:39;;;;;;;0.90;0.70;;;;;;;-144.78;100.00;59851.00;5015268;28;20193;-73
2021/01/29 07:11:38;;;;;;;2.53;0.65;;;;;;;-144.78;100.00;59851.00;5014819;28;20209;-72
2021/01/29 07:14:35;;;;;;;0.93;0.60;;;;;;;-144.78;100.00;59851.00;5014718;28;20288;-74
2021/01/29 07:17:11;;;;;;;1.02;0.70;;;;;;;-144.78;100.00;59851.00;5014781;28;20247;-73
2021/01/29 07:19:56;;;;;;;1.40;0.70;;;;;;;-144.78;100.00;59851.00;5014514;28;20281;-73
2021/01/29 07:22:58;;;;;;;0.80;0.60;;;;;;;-144.78;100.00;59851.00;5014815;28;20217;-73
2021/01/29 07:25:33;;;;;;;0.80;0.60;;;;;;;-144.78;100.00;59851.00;4989268;28;20212;-73
2021/01/29 07:28:17;;;;;;;1.63;0.60;;;;;;;-144.78;100.00;59851.00;5015820;28;20207;-74
2021/01/29 07:31:23;;;;;;;1.33;0.50;;;;;;;-144.78;100.00;59851.00;4995173;28;20288;-74
2021/01/29 07:33:58;;;;;;;1.38;0.80;;;;;;;-144.78;100.00;59851.00;4995026;28;20203;-74
2021/01/29 07:37:04;;;;;;;0.70;0.50;;;;;;;-144.78;100.00;59851.00;5007109;28;20259;-74
2021/01/29 07:39:49;;;;;;;1.80;0.70;;;;;;;-144.78;100.00;59851.00;4974434;28;20295;-73
2021/01/29 07:42:31;;;;;;;2.40;0.88;;;;;;;-144.78;100.00;59851.00;4994282;28;20392;-74
2021/01/29 07:45:13;;;;;;;1.50;0.70;;;;;;;-144.78;100.00;59851.00;4995062;28;20202;-74
2021/01/29 07:48:08;;;;;;;1.75;0.90;;;;;;;-144.78;100.00;59851.00;4995041;28;20259;-73
2021/01/29 07:50:42;;;;;;;6.65;0.85;;;;;;;-144.78;100.00;59851.00;4995443;28;20962;-74
2021/01/29 07:53:15;;;;;;;2.13;1.00;;;;;;;-144.78;100.00;59851.00;4994986;28;20199;-75
2021/01/29 07:56:07;;;;;;;0.85;0.63;;;;;;;-144.78;100.00;59851.00;5003065;28;20216;-74
2021/01/29 07:58:42;;;;;;;1.42;0.88;;;;;;;-144.78;100.00;59851.00;5013942;28;20284;-74
2021/01/29 08:01:31;;;;;;;6.57;1.10;;;;;;;-144.78;100.00;59851.00;5014005;28;20269;-74
2021/01/29 08:04:36;;;;;;;3.08;1.05;;;;;;;-144.78;100.00;59851.00;5013582;28;20233;-74
2021/01/29 08:07:13;;;;;;;0.93;0.80;;;;;;;-144.78;100.00;59851.00;4972209;28;20202;-74
2021/01/29 08:09:42;;;;;;;1.33;0.70;;;;;;;-144.78;100.00;59851.00;4990383;28;20212;-75
2021/01/29 08:12:12;;;;;;;2.72;0.75;;;;;;;-144.78;100.00;59851.00;4994116;28;20551;-73
2021/01/29 08:14:53;;;;;;;1.33;0.80;;;;;;;-144.78;100.00;59851.00;5001103;28;20192;-76
2021/01/29 08:17:35;;;;;;;5.53;1.13;;;;;;;-144.78;100.00;59851.00;5013626;28;20259;-73
2021/01/29 08:20:21;;;;;;;6.25;0.80;;;;;;;-144.78;100.00;59851.00;5012848;28;20546;-74
2021/01/29 08:23:01;;;;;;;1.05;0.80;;;;;;;-144.78;100.00;59851.00;5013719;28;20248;-73
2021/01/29 08:25:45;;;;;;;2.95;1.52;;;;;;;-144.78;100.00;59851.00;5013152;28;20188;-73
2021/01/29 08:29:08;;;;;;;1.42;1.33;;;;;;;-144.78;100.00;59851.00;5015626;28;20189;-74
2021/01/29 08:32:03;;;;;;;0.90;0.80;;;;;;;-144.78;100.00;59851.00;4971855;28;20222;-74
2021/01/29 08:35:07;;;;;;;2.92;2.55;;;;;;;-144.78;100.00;59851.00;4972489;28;20225;-74
2021/01/29 08:37:46;;;;;;;2.88;1.00;;;;;;;-144.78;100.00;59851.00;5015543;28;20194;-75
2021/01/29 08:40:27;;;;;;;0.90;0.70;;;;;;;-144.78;100.00;59851.00;5032813;28;20234;-73
2021/01/29 08:43:15;;;;;;;3.25;1.05;;;;;;;-144.78;100.00;59851.00;5033359;28;20298;-74
2021/01/29 08:45:55;;;;;;;1.77;0.70;;;;;;;-144.78;100.00;59851.00;5032674;28;20285;-74
2021/01/29 08:48:39;;;;;;;2.47;1.00;;;;;;;-144.78;100.00;59851.00;5017076;28;20191;-75
2021/01/29 08:51:21;;;;;;;0.90;0.60;;;;;;;-144.78;100.00;59851.00;5013542;28;20281;-74
2021/01/29 08:54:08;;;;;;;2.28;1.08;;;;;;;-144.78;100.00;59851.00;5023671;28;20300;-73
2021/01/29 08:56:45;;;;;;;3.83;1.55;;;;;;;-144.78;100.00;59851.00;5032559;28;20202;-73
2021/01/29 08:59:15;;;;;;;1.55;1.20;;;;;;;-144.78;100.00;59851.00;5032871;28;20207;-72
2021/01/29 09:01:50;;;;;;;1.10;1.00;;;;;;;-144.78;100.00;59851.00;5032523;28;20273;-73
2021/01/29 09:04:27;;;;;;;1.17;0.95;;;;;;;-144.78;100.00;59851.00;5032805;28;20264;-74
2021/01/29 09:06:58;;;;;;;2.75;1.35;;;;;;;-144.78;100.00;59851.00;5032475;28;20311;-73
2021/01/29 09:09:30;;;;;;;1.35;0.70;;;;;;;-144.78;100.00;59851.00;5032268;28;20258;-73
2021/01/29 09:11:58;;;;;;;1.08;0.80;;;;;;;-144.78;100.00;59851.00;5031655;28;20197;-73
2021/01/29 09:14:31;;;;;;;2.55;2.08;;;;;;;-144.78;100.00;59851.00;5031917;28;20188;-74
2021/01/29 09:17:04;;;;;;;4.30;1.13;;;;;;;-144.78;100.00;59851.00;5032235;28;20195;-74
2021/01/29 09:19:33;;;;;;;0.80;0.60;;;;;;;-144.78;100.00;59851.00;5032058;28;20198;-74
2021/01/29 09:22:12;;;;;;;3.85;1.25;;;;;;;-144.78;100.00;59851.00;5032080;28;20321;-74
2021/01/29 09:24:46;;;;;;;2.47;1.25;;;;;;;-144.78;100.00;59851.00;5026980;28;20668;-74
2021/01/29 09:27:39;;;;;;;1.70;0.85;;;;;;;-144.78;100.00;59851.00;5029739;28;20195;-74
2021/01/29 09:30:13;;;;;;;2.15;1.02;;;;;;;-144.78;100.00;59851.00;5032054;28;20673;-73
2021/01/29 09:32:51;;;;;;;1.50;0.90;;;;;;;-144.78;100.00;59851.00;5032000;28;20210;-74
2021/01/29 09:35:26;;;;;;;2.15;0.57;;;;;;;-144.78;100.00;59851.00;5032089;28;20207;-73
2021/01/29 09:37:56;;;;;;;10.02;1.00;;;;;;;-144.78;100.00;59851.00;5031819;28;20200;-76
2021/01/29 09:40:27;;;;;;;1.23;0.90;;;;;;;-144.78;100.00;59851.00;5027751;28;20293;-74
2021/01/29 09:43:09;;;;;;;0.80;0.60;;;;;;;-144.78;100.00;59851.00;5032022;28;20573;-74
2021/01/29 09:45:38;;;;;;;1.90;0.90;;;;;;;-144.78;100.00;59851.00;5031715;28;20630;-75
2021/01/29 09:48:07;;;;;;;2.03;1.50;;;;;;;-144.78;100.00;59851.00;5031823;28;20206;-74
2021/01/29 09:50:34;;;;;;;1.38;1.02;;;;;;;-144.78;100.00;59851.00;5032282;28;20277;-74
2021/01/29 09:53:25;;;;;;;4.20;1.15;;;;;;;-144.78;100.00;59851.00;5032326;28;20192;-74
2021/01/29 09:56:02;;;;;;;2.35;0.90;;;;;;;-144.78;100.00;59851.00;5029468;28;20296;-75
2021/01/29 09:58:43;;;;;;;3.40;1.23;;;;;;;-144.78;100.00;59851.00;5031490;28;20632;-74
2021/01/29 10:01:12;;;;;;;6.13;1.35;;;;;;;-144.78;100.00;59851.00;5031719;28;20626;-74
2021/01/29 10:03:51;;;;;;;1.60;0.80;;;;;;;-144.78;100.00;59851.00;5031454;28;20218;-73
2021/01/29 10:06:22;;;;;;;1.40;1.30;;;;;;;-144.78;100.00;59851.00;5031804;28;20246;-74
2021/01/29 10:08:55;;;;;;;0.90;0.75;;;;;;;-144.78;100.00;59851.00;5031097;28;20279;-73
2021/01/29 10:11:25;;;;;;;1.70;0.82;;;;;;;-144.78;100.00;59851.00;5031134;28;20604;-74
2021/01/29 10:14:06;;;;;;;1.80;0.80;;;;;;;-144.78;100.00;59851.00;5031717;28;20200;-74
2021/01/29 10:16:48;;;;;;;2.45;0.80;;;;;;;-144.78;100.00;59851.00;5031434;28;20295;-74
2021/01/29 10:19:26;;;;;;;8.32;1.35;;;;;;;-144.78;100.00;59851.00;5031538;28;20280;-74
2021/01/29 10:22:40;;;;;;;1.45;1.35;;;;;;;-144.78;100.00;59851.00;5031411;28;20219;-75
2021/01/29 10:25:18;;;;;;;1.70;1.60;;;;;;;-144.78;100.00;59851.00;5031923;28;20513;-73
2021/01/29 10:27:51;;;;;;;5.88;1.00;;;;;;;-144.78;100.00;59851.00;5029433;28;20208;-73
2021/01/29 10:30:28;;;;;;;1.35;0.90;;;;;;;-144.78;100.00;59851.00;5031430;28;20241;-75
2021/01/29 10:33:04;;;;;;;1.42;1.02;;;;;;;-144.78;100.00;59851.00;5031541;28;20280;-74
2021/01/29 10:35:35;;;;;;;8.80;1.20;;;;;;;-144.78;100.00;59851.00;5031312;28;20232;-75
2021/01/29 10:38:08;;;;;;;1.17;1.05;;;;;;;-144.78;100.00;59851.00;5031174;28;20302;-73
2021/01/29 10:40:38;;;;;;;1.65;0.93;;;;;;;-144.78;100.00;59851.00;5029768;28;20348;-74
2021/01/29 10:43:15;;;;;;;1.50;0.80;;;;;;;-144.78;100.00;59851.00;5011294;28;20246;-75
2021/01/29 10:46:05;;;;;;;1.42;0.93;;;;;;;-144.78;100.00;59851.00;5011548;28;20264;-76
2021/01/29 10:48:46;;;;;;;4.40;1.17;;;;;;;-144.78;100.00;59851.00;5011885;28;20656;-74
2021/01/29 10:51:25;;;;;;;4.07;1.25;;;;;;;-144.78;100.00;59851.00;5011620;28;20230;-75
2021/01/29 10:53:57;;;;;;;8.38;1.00;;;;;;;-144.78;100.00;59851.00;5017003;28;20197;-75
2021/01/29 10:56:27;;;;;;;1.30;0.80;;;;;;;-144.78;100.00;59851.00;5026301;28;20211;-74
2021/01/29 10:58:57;;;;;;;4.43;1.60;;;;;;;-144.78;100.00;59851.00;5011944;28;20198;-74
2021/01/29 11:01:31;;;;;;;1.20;1.08;;;;;;;-144.78;100.00;59851.00;5014724;28;20210;-74
2021/01/29 11:04:05;;;;;;;2.83;1.10;;;;;;;-144.78;100.00;59851.00;5015179;28;20648;-74
2021/01/29 11:06:41;;;;;;;0.80;0.80;;;;;;;-144.78;100.00;59851.00;5023566;28;20247;-74
2021/01/29 11:09:15;;;;;;;2.22;1.13;;;;;;;-144.78;100.00;59851.00;5025927;28;20237;-74
2021/01/29 11:11:47;;;;;;;2.85;1.60;;;;;;;-144.78;100.00;59851.00;5033755;28;20204;-74
2021/01/29 11:14:21;;;;;;;2.42;0.93;;;;;;;-144.78;100.00;59851.00;5033936;28;20281;-74
2021/01/29 11:16:55;;;;;;;1.15;1.05;;;;;;;-144.78;100.00;59851.00;5014936;28;20194;-74
2021/01/29 11:19:30;;;;;;;3.58;1.38;;;;;;;-144.78;100.00;59851.00;5019908;28;20281;-75
2021/01/29 11:22:12;;;;;;;3.03;0.82;;;;;;;-144.78;100.00;59851.00;5029616;28;20296;-76
2021/01/29 11:24:47;;;;;;;3.63;1.10;;;;;;;-144.78;100.00;59851.00;5034158;28;20201;-75
2021/01/29 11:27:20;;;;;;;0.80;0.68;;;;;;;-144.78;100.00;59851.00;5034524;28;21076;-74
2021/01/29 11:29:59;;;;;;;1.60;0.95;;;;;;;-144.78;100.00;59851.00;5034194;28;20269;-76
2021/01/29 11:32:29;;;;;;;1.33;1.08;;;;;;;-144.78;100.00;59851.00;5034205;28;20396;-75
2021/01/29 11:35:11;;;;;;;3.08;0.90;;;;;;;-144.78;100.00;59851.00;5034468;28;20256;-75
2021/01/29 11:37:46;;;;;;;1.67;1.00;;;;;;;-144.78;100.00;59851.00;5033435;28;20248;-75
2021/01/29 11:40:19;;;;;;;1.35;0.85;;;;;;;-144.78;100.00;59851.00;5034030;28;20582;-74
2021/01/29 11:42:58;;;;;;;3.45;1.70;;;;;;;-144.78;100.00;59851.00;5033726;28;20229;-76
2021/01/29 11:45:27;;;;;;;0.80;0.68;;;;;;;-144.78;100.00;59851.00;5032215;28;20258;-74
2021/01/29 11:48:02;;;;;;;1.17;1.05;;;;;;;-144.78;100.00;59851.00;5033102;28;20235;-75
2021/01/29 11:50:37;;;;;;;1.65;0.93;;;;;;;-144.78;100.00;59851.00;5033866;28;20236;-75
2021/01/29 11:53:11;;;;;;;5.18;1.35;;;;;;;-144.78;100.00;59851.00;5033782;28;20192;-74
2021/01/29 11:55:45;;;;;;;15.43;1.55;;;;;;;-144.78;100.00;59851.00;5033943;28;20275;-72
2021/01/29 11:58:21;;;;;;;1.17;0.82;;;;;;;-144.78;100.00;59851.00;5033989;28;20294;-74
2021/01/29 12:00:54;;;;;;;1.85;1.20;;;;;;;-144.78;100.00;59851.00;5033381;28;20212;-74